sensor_id;sensor_type;location;lat;lon;timestamp;P1;durP1;ratioP1;P2;durP2;ratioP2
23565;SDS011;22140;48.988;8.544;2023-07-13T00:02:34;7.83;;;1.50;;
23565;SDS011;22140;48.988;8.544;2023-07-13T00:07:35;7.43;;;1.75;;
23565;SDS011;22140;48.988;8.544;2023-07-13T00:12:37;5.90;;;1.48;;
23565;SDS011;22140;48.988;8.544;2023-07-13T00:17:39;6.67;;;1.40;;
23565;SDS011;22140;48.988;8.544;2023-07-13T00:22:40;6.40;;;1.53;;
23565;SDS011;22140;48.988;8.544;2023-07-13T00:27:42;8.02;;;1.50;;
23565;SDS011;22140;48.988;8.544;2023-07-13T00:32:44;7.60;;;1.65;;
23565;SDS011;22140;48.988;8.544;2023-07-13T00:37:45;5.23;;;1.30;;
23565;SDS011;22140;48.988;8.544;2023-07-13T00:42:47;5.80;;;1.50;;
23565;SDS011;22140;48.988;8.544;2023-07-13T00:47:48;5.70;;;1.40;;
23565;SDS011;22140;48.988;8.544;2023-07-13T00:52:52;6.00;;;1.20;;
23565;SDS011;22140;48.988;8.544;2023-07-13T00:57:54;6.05;;;1.40;;
23565;SDS011;22140;48.988;8.544;2023-07-13T01:02:56;7.80;;;1.48;;
23565;SDS011;22140;48.988;8.544;2023-07-13T01:07:59;6.63;;;1.40;;
23565;SDS011;22140;48.988;8.544;2023-07-13T01:13:00;7.30;;;1.70;;
23565;SDS011;22140;48.988;8.544;2023-07-13T01:18:02;7.60;;;1.48;;
23565;SDS011;22140;48.988;8.544;2023-07-13T01:23:05;6.15;;;1.50;;
23565;SDS011;22140;48.988;8.544;2023-07-13T01:28:07;6.53;;;1.20;;
23565;SDS011;22140;48.988;8.544;2023-07-13T01:33:16;6.35;;;1.42;;
23565;SDS011;22140;48.988;8.544;2023-07-13T01:38:19;6.10;;;1.20;;
23565;SDS011;22140;48.988;8.544;2023-07-13T01:43:21;7.73;;;1.67;;
23565;SDS011;22140;48.988;8.544;2023-07-13T01:48:22;10.40;;;1.65;;
23565;SDS011;22140;48.988;8.544;2023-07-13T01:53:24;7.85;;;1.58;;
23565;SDS011;22140;48.988;8.544;2023-07-13T01:58:25;5.87;;;1.50;;
23565;SDS011;22140;48.988;8.544;2023-07-13T02:03:26;7.47;;;1.40;;
23565;SDS011;22140;48.988;8.544;2023-07-13T02:08:28;5.72;;;1.50;;
23565;SDS011;22140;48.988;8.544;2023-07-13T02:13:29;8.77;;;1.48;;
23565;SDS011;22140;48.988;8.544;2023-07-13T02:18:31;5.30;;;1.20;;
23565;SDS011;22140;48.988;8.544;2023-07-13T02:23:32;7.15;;;1.50;;
23565;SDS011;22140;48.988;8.544;2023-07-13T02:28:33;5.78;;;1.35;;
23565;SDS011;22140;48.988;8.544;2023-07-13T02:33:35;6.70;;;1.30;;
23565;SDS011;22140;48.988;8.544;2023-07-13T02:38:36;8.65;;;1.63;;
23565;SDS011;22140;48.988;8.544;2023-07-13T02:43:38;5.35;;;1.55;;
23565;SDS011;22140;48.988;8.544;2023-07-13T02:48:39;6.90;;;1.47;;
23565;SDS011;22140;48.988;8.544;2023-07-13T02:53:41;7.25;;;1.45;;
23565;SDS011;22140;48.988;8.544;2023-07-13T02:58:42;5.90;;;1.48;;
23565;SDS011;22140;48.988;8.544;2023-07-13T03:03:44;10.60;;;1.70;;
23565;SDS011;22140;48.988;8.544;2023-07-13T03:08:45;6.97;;;1.70;;
23565;SDS011;22140;48.988;8.544;2023-07-13T03:13:47;5.43;;;1.40;;
23565;SDS011;22140;48.988;8.544;2023-07-13T03:18:48;6.30;;;1.52;;
23565;SDS011;22140;48.988;8.544;2023-07-13T03:23:50;7.33;;;1.50;;
23565;SDS011;22140;48.988;8.544;2023-07-13T03:28:51;7.68;;;1.92;;
23565;SDS011;22140;48.988;8.544;2023-07-13T03:33:52;7.13;;;2.00;;
23565;SDS011;22140;48.988;8.544;2023-07-13T03:38:55;9.07;;;1.70;;
23565;SDS011;22140;48.988;8.544;2023-07-13T03:43:56;7.03;;;1.80;;
23565;SDS011;22140;48.988;8.544;2023-07-13T03:48:58;6.25;;;1.70;;
23565;SDS011;22140;48.988;8.544;2023-07-13T03:53:59;6.23;;;1.47;;
23565;SDS011;22140;48.988;8.544;2023-07-13T03:59:01;4.67;;;1.40;;
23565;SDS011;22140;48.988;8.544;2023-07-13T04:04:03;13.18;;;2.20;;
23565;SDS011;22140;48.988;8.544;2023-07-13T04:09:04;5.82;;;1.80;;
23565;SDS011;22140;48.988;8.544;2023-07-13T04:14:10;6.67;;;1.60;;
23565;SDS011;22140;48.988;8.544;2023-07-13T04:19:12;5.55;;;1.60;;
23565;SDS011;22140;48.988;8.544;2023-07-13T04:24:14;7.07;;;1.70;;
23565;SDS011;22140;48.988;8.544;2023-07-13T04:29:15;7.63;;;1.70;;
23565;SDS011;22140;48.988;8.544;2023-07-13T04:34:16;6.72;;;1.70;;
23565;SDS011;22140;48.988;8.544;2023-07-13T04:39:18;7.72;;;1.83;;
23565;SDS011;22140;48.988;8.544;2023-07-13T04:44:19;7.33;;;1.63;;
23565;SDS011;22140;48.988;8.544;2023-07-13T04:49:21;7.40;;;2.10;;
23565;SDS011;22140;48.988;8.544;2023-07-13T04:54:22;7.88;;;1.90;;
23565;SDS011;22140;48.988;8.544;2023-07-13T04:59:23;5.80;;;1.70;;
23565;SDS011;22140;48.988;8.544;2023-07-13T05:04:25;5.67;;;1.83;;
23565;SDS011;22140;48.988;8.544;2023-07-13T05:09:26;7.20;;;1.73;;
23565;SDS011;22140;48.988;8.544;2023-07-13T05:14:27;6.50;;;1.58;;
23565;SDS011;22140;48.988;8.544;2023-07-13T05:19:29;7.37;;;2.03;;
23565;SDS011;22140;48.988;8.544;2023-07-13T05:24:30;12.23;;;2.25;;
23565;SDS011;22140;48.988;8.544;2023-07-13T05:29:32;8.82;;;1.88;;
23565;SDS011;22140;48.988;8.544;2023-07-13T05:34:33;9.20;;;1.70;;
23565;SDS011;22140;48.988;8.544;2023-07-13T05:39:35;9.83;;;1.73;;
23565;SDS011;22140;48.988;8.544;2023-07-13T05:44:36;7.50;;;2.10;;
23565;SDS011;22140;48.988;8.544;2023-07-13T05:49:38;9.57;;;2.15;;
23565;SDS011;22140;48.988;8.544;2023-07-13T05:54:40;8.00;;;1.80;;
23565;SDS011;22140;48.988;8.544;2023-07-13T05:59:41;16.48;;;2.50;;
23565;SDS011;22140;48.988;8.544;2023-07-13T06:04:42;19.52;;;3.55;;
23565;SDS011;22140;48.988;8.544;2023-07-13T06:09:44;39.23;;;4.93;;
23565;SDS011;22140;48.988;8.544;2023-07-13T06:14:45;15.18;;;2.63;;
23565;SDS011;22140;48.988;8.544;2023-07-13T06:19:46;6.75;;;2.00;;
23565;SDS011;22140;48.988;8.544;2023-07-13T06:24:48;8.93;;;1.87;;
23565;SDS011;22140;48.988;8.544;2023-07-13T06:29:49;6.90;;;1.80;;
23565;SDS011;22140;48.988;8.544;2023-07-13T06:34:51;6.30;;;1.77;;
23565;SDS011;22140;48.988;8.544;2023-07-13T06:39:53;8.40;;;2.00;;
23565;SDS011;22140;48.988;8.544;2023-07-13T06:44:54;5.53;;;1.80;;
23565;SDS011;22140;48.988;8.544;2023-07-13T06:49:56;8.00;;;2.20;;
23565;SDS011;22140;48.988;8.544;2023-07-13T06:54:57;8.07;;;1.83;;
23565;SDS011;22140;48.988;8.544;2023-07-13T06:59:58;8.43;;;2.20;;
23565;SDS011;22140;48.988;8.544;2023-07-13T07:05:00;7.28;;;2.03;;
23565;SDS011;22140;48.988;8.544;2023-07-13T07:10:02;6.97;;;2.20;;
23565;SDS011;22140;48.988;8.544;2023-07-13T07:15:04;6.67;;;2.17;;
23565;SDS011;22140;48.988;8.544;2023-07-13T07:20:06;8.93;;;2.40;;
23565;SDS011;22140;48.988;8.544;2023-07-13T07:25:07;7.95;;;2.25;;
23565;SDS011;22140;48.988;8.544;2023-07-13T07:30:09;7.38;;;2.28;;
23565;SDS011;22140;48.988;8.544;2023-07-13T07:35:14;10.17;;;2.40;;
23565;SDS011;22140;48.988;8.544;2023-07-13T07:40:15;6.85;;;2.10;;
23565;SDS011;22140;48.988;8.544;2023-07-13T07:45:20;7.55;;;2.22;;
23565;SDS011;22140;48.988;8.544;2023-07-13T07:50:21;6.10;;;2.07;;
23565;SDS011;22140;48.988;8.544;2023-07-13T07:55:23;8.82;;;2.40;;
23565;SDS011;22140;48.988;8.544;2023-07-13T08:00:27;7.85;;;2.80;;
23565;SDS011;22140;48.988;8.544;2023-07-13T08:05:45;10.47;;;2.40;;
23565;SDS011;22140;48.988;8.544;2023-07-13T08:11:08;6.43;;;2.27;;
23565;SDS011;22140;48.988;8.544;2023-07-13T08:16:12;6.00;;;2.55;;
23565;SDS011;22140;48.988;8.544;2023-07-13T08:21:14;7.00;;;2.40;;
23565;SDS011;22140;48.988;8.544;2023-07-13T08:26:15;9.23;;;2.80;;
23565;SDS011;22140;48.988;8.544;2023-07-13T08:31:17;7.45;;;2.60;;
23565;SDS011;22140;48.988;8.544;2023-07-13T08:36:18;8.05;;;2.67;;
23565;SDS011;22140;48.988;8.544;2023-07-13T08:41:20;6.40;;;2.40;;
23565;SDS011;22140;48.988;8.544;2023-07-13T08:51:31;5.63;;;2.40;;
23565;SDS011;22140;48.988;8.544;2023-07-13T08:56:34;8.67;;;2.53;;
23565;SDS011;22140;48.988;8.544;2023-07-13T09:01:44;5.80;;;2.20;;
23565;SDS011;22140;48.988;8.544;2023-07-13T09:12:14;7.38;;;2.33;;
23565;SDS011;22140;48.988;8.544;2023-07-13T09:17:24;9.43;;;2.40;;
23565;SDS011;22140;48.988;8.544;2023-07-13T09:22:26;5.93;;;2.03;;
23565;SDS011;22140;48.988;8.544;2023-07-13T09:27:32;6.13;;;2.30;;
23565;SDS011;22140;48.988;8.544;2023-07-13T09:32:34;9.60;;;2.50;;
23565;SDS011;22140;48.988;8.544;2023-07-13T09:37:37;7.63;;;2.00;;
23565;SDS011;22140;48.988;8.544;2023-07-13T09:42:38;8.07;;;2.20;;
23565;SDS011;22140;48.988;8.544;2023-07-13T09:47:40;6.57;;;2.10;;
23565;SDS011;22140;48.988;8.544;2023-07-13T09:52:45;5.67;;;2.00;;
23565;SDS011;22140;48.988;8.544;2023-07-13T09:57:47;5.85;;;1.95;;
23565;SDS011;22140;48.988;8.544;2023-07-13T10:03:04;7.93;;;2.10;;
23565;SDS011;22140;48.988;8.544;2023-07-13T10:08:14;7.37;;;1.90;;
23565;SDS011;22140;48.988;8.544;2023-07-13T10:13:26;8.18;;;2.10;;
23565;SDS011;22140;48.988;8.544;2023-07-13T10:18:29;7.30;;;2.10;;
23565;SDS011;22140;48.988;8.544;2023-07-13T10:23:32;6.67;;;2.00;;
23565;SDS011;22140;48.988;8.544;2023-07-13T10:28:35;8.35;;;2.10;;
23565;SDS011;22140;48.988;8.544;2023-07-13T10:33:38;5.72;;;1.80;;
23565;SDS011;22140;48.988;8.544;2023-07-13T10:38:39;10.67;;;1.80;;
23565;SDS011;22140;48.988;8.544;2023-07-13T10:43:42;7.17;;;1.77;;
23565;SDS011;22140;48.988;8.544;2023-07-13T10:48:45;9.20;;;1.80;;
23565;SDS011;22140;48.988;8.544;2023-07-13T10:53:48;6.75;;;1.83;;
23565;SDS011;22140;48.988;8.544;2023-07-13T11:04:11;7.53;;;1.80;;
23565;SDS011;22140;48.988;8.544;2023-07-13T11:09:30;8.18;;;1.73;;
23565;SDS011;22140;48.988;8.544;2023-07-13T11:14:36;7.70;;;2.10;;
23565;SDS011;22140;48.988;8.544;2023-07-13T11:19:41;5.13;;;1.60;;
23565;SDS011;22140;48.988;8.544;2023-07-13T11:29:50;5.83;;;1.70;;
23565;SDS011;22140;48.988;8.544;2023-07-13T11:34:51;8.67;;;1.80;;
23565;SDS011;22140;48.988;8.544;2023-07-13T11:39:54;6.00;;;1.63;;
23565;SDS011;22140;48.988;8.544;2023-07-13T11:44:55;5.65;;;1.60;;
23565;SDS011;22140;48.988;8.544;2023-07-13T11:50:20;9.50;;;2.00;;
23565;SDS011;22140;48.988;8.544;2023-07-13T11:55:22;17.00;;;2.47;;
23565;SDS011;22140;48.988;8.544;2023-07-13T12:00:28;7.65;;;1.70;;
23565;SDS011;22140;48.988;8.544;2023-07-13T12:05:31;5.57;;;1.70;;
23565;SDS011;22140;48.988;8.544;2023-07-13T12:10:34;5.68;;;1.70;;
23565;SDS011;22140;48.988;8.544;2023-07-13T12:15:42;7.40;;;1.85;;
23565;SDS011;22140;48.988;8.544;2023-07-13T12:20:45;5.40;;;1.70;;
23565;SDS011;22140;48.988;8.544;2023-07-13T12:25:46;7.83;;;1.93;;
23565;SDS011;22140;48.988;8.544;2023-07-13T12:30:48;8.05;;;1.92;;
23565;SDS011;22140;48.988;8.544;2023-07-13T12:35:51;5.15;;;1.63;;
23565;SDS011;22140;48.988;8.544;2023-07-13T12:40:53;10.20;;;1.70;;
23565;SDS011;22140;48.988;8.544;2023-07-13T12:51:03;12.20;;;2.20;;
23565;SDS011;22140;48.988;8.544;2023-07-13T12:56:04;6.60;;;1.90;;
23565;SDS011;22140;48.988;8.544;2023-07-13T13:01:06;5.00;;;1.80;;
23565;SDS011;22140;48.988;8.544;2023-07-13T13:11:16;8.57;;;1.83;;
23565;SDS011;22140;48.988;8.544;2023-07-13T13:16:34;6.40;;;2.00;;
23565;SDS011;22140;48.988;8.544;2023-07-13T13:21:36;7.07;;;2.08;;
23565;SDS011;22140;48.988;8.544;2023-07-13T13:26:37;7.15;;;1.85;;
23565;SDS011;22140;48.988;8.544;2023-07-13T13:31:39;9.53;;;2.33;;
23565;SDS011;22140;48.988;8.544;2023-07-13T13:36:41;8.55;;;1.77;;
23565;SDS011;22140;48.988;8.544;2023-07-13T13:41:43;4.85;;;1.55;;
23565;SDS011;22140;48.988;8.544;2023-07-13T13:46:51;6.37;;;1.90;;
23565;SDS011;22140;48.988;8.544;2023-07-13T13:51:55;5.82;;;1.60;;
23565;SDS011;22140;48.988;8.544;2023-07-13T13:56:56;5.80;;;1.50;;
23565;SDS011;22140;48.988;8.544;2023-07-13T14:02:01;6.43;;;1.77;;
23565;SDS011;22140;48.988;8.544;2023-07-13T14:07:02;6.73;;;1.93;;
23565;SDS011;22140;48.988;8.544;2023-07-13T14:12:04;6.60;;;1.65;;
23565;SDS011;22140;48.988;8.544;2023-07-13T14:17:11;5.78;;;1.83;;
23565;SDS011;22140;48.988;8.544;2023-07-13T14:22:17;7.13;;;1.80;;
23565;SDS011;22140;48.988;8.544;2023-07-13T14:27:19;7.00;;;1.83;;
23565;SDS011;22140;48.988;8.544;2023-07-13T14:32:21;7.38;;;1.80;;
23565;SDS011;22140;48.988;8.544;2023-07-13T14:37:22;6.97;;;1.63;;
23565;SDS011;22140;48.988;8.544;2023-07-13T14:42:24;7.95;;;1.67;;
23565;SDS011;22140;48.988;8.544;2023-07-13T14:47:25;6.53;;;1.80;;
23565;SDS011;22140;48.988;8.544;2023-07-13T14:52:27;6.43;;;1.70;;
23565;SDS011;22140;48.988;8.544;2023-07-13T14:57:28;7.33;;;1.50;;
23565;SDS011;22140;48.988;8.544;2023-07-13T15:02:31;7.47;;;1.90;;
23565;SDS011;22140;48.988;8.544;2023-07-13T15:07:34;6.57;;;1.60;;
23565;SDS011;22140;48.988;8.544;2023-07-13T15:12:36;5.03;;;1.40;;
23565;SDS011;22140;48.988;8.544;2023-07-13T15:17:41;7.65;;;1.80;;
23565;SDS011;22140;48.988;8.544;2023-07-13T15:22:43;5.60;;;1.63;;
23565;SDS011;22140;48.988;8.544;2023-07-13T15:27:44;10.60;;;1.93;;
23565;SDS011;22140;48.988;8.544;2023-07-13T15:32:46;6.13;;;2.08;;
23565;SDS011;22140;48.988;8.544;2023-07-13T15:37:48;6.53;;;1.95;;
23565;SDS011;22140;48.988;8.544;2023-07-13T15:42:49;7.13;;;1.80;;
23565;SDS011;22140;48.988;8.544;2023-07-13T15:47:51;5.03;;;1.70;;
23565;SDS011;22140;48.988;8.544;2023-07-13T15:52:53;7.43;;;1.70;;
23565;SDS011;22140;48.988;8.544;2023-07-13T15:57:55;8.27;;;1.63;;
23565;SDS011;22140;48.988;8.544;2023-07-13T16:02:57;7.67;;;1.50;;
23565;SDS011;22140;48.988;8.544;2023-07-13T16:07:58;5.75;;;2.03;;
23565;SDS011;22140;48.988;8.544;2023-07-13T16:13:00;6.65;;;1.92;;
23565;SDS011;22140;48.988;8.544;2023-07-13T16:18:02;6.07;;;1.80;;
23565;SDS011;22140;48.988;8.544;2023-07-13T16:23:07;7.18;;;1.77;;
23565;SDS011;22140;48.988;8.544;2023-07-13T16:28:11;6.22;;;1.70;;
23565;SDS011;22140;48.988;8.544;2023-07-13T16:33:12;8.33;;;1.70;;
23565;SDS011;22140;48.988;8.544;2023-07-13T16:43:16;7.07;;;1.90;;
23565;SDS011;22140;48.988;8.544;2023-07-13T16:48:32;6.57;;;1.83;;
23565;SDS011;22140;48.988;8.544;2023-07-13T16:53:34;8.13;;;1.90;;
23565;SDS011;22140;48.988;8.544;2023-07-13T16:58:35;6.30;;;1.67;;
23565;SDS011;22140;48.988;8.544;2023-07-13T17:03:37;5.80;;;1.70;;
23565;SDS011;22140;48.988;8.544;2023-07-13T17:08:39;5.33;;;1.47;;
23565;SDS011;22140;48.988;8.544;2023-07-13T17:13:40;7.22;;;2.00;;
23565;SDS011;22140;48.988;8.544;2023-07-13T17:18:43;8.43;;;1.60;;
23565;SDS011;22140;48.988;8.544;2023-07-13T17:23:45;8.80;;;1.60;;
23565;SDS011;22140;48.988;8.544;2023-07-13T17:28:46;6.87;;;1.70;;
23565;SDS011;22140;48.988;8.544;2023-07-13T17:33:48;8.93;;;1.70;;
23565;SDS011;22140;48.988;8.544;2023-07-13T17:38:51;7.45;;;2.08;;
23565;SDS011;22140;48.988;8.544;2023-07-13T17:43:57;6.10;;;2.00;;
23565;SDS011;22140;48.988;8.544;2023-07-13T17:48:59;5.57;;;1.70;;
23565;SDS011;22140;48.988;8.544;2023-07-13T17:54:00;7.22;;;1.60;;
23565;SDS011;22140;48.988;8.544;2023-07-13T17:59:02;7.63;;;1.90;;
23565;SDS011;22140;48.988;8.544;2023-07-13T18:04:04;6.22;;;1.85;;
23565;SDS011;22140;48.988;8.544;2023-07-13T18:09:31;8.25;;;1.50;;
23565;SDS011;22140;48.988;8.544;2023-07-13T18:14:32;7.17;;;1.60;;
23565;SDS011;22140;48.988;8.544;2023-07-13T18:19:38;5.23;;;1.77;;
23565;SDS011;22140;48.988;8.544;2023-07-13T18:24:40;7.25;;;1.80;;
23565;SDS011;22140;48.988;8.544;2023-07-13T18:29:42;5.15;;;1.40;;
23565;SDS011;22140;48.988;8.544;2023-07-13T18:34:44;6.70;;;1.40;;
23565;SDS011;22140;48.988;8.544;2023-07-13T18:39:48;5.07;;;1.50;;
23565;SDS011;22140;48.988;8.544;2023-07-13T18:44:52;5.93;;;1.60;;
23565;SDS011;22140;48.988;8.544;2023-07-13T18:49:53;6.00;;;1.53;;
23565;SDS011;22140;48.988;8.544;2023-07-13T18:54:57;10.02;;;1.80;;
23565;SDS011;22140;48.988;8.544;2023-07-13T19:00:00;6.78;;;1.60;;
23565;SDS011;22140;48.988;8.544;2023-07-13T19:05:01;7.83;;;1.80;;
23565;SDS011;22140;48.988;8.544;2023-07-13T19:10:04;6.67;;;1.80;;
23565;SDS011;22140;48.988;8.544;2023-07-13T19:15:21;7.15;;;1.65;;
23565;SDS011;22140;48.988;8.544;2023-07-13T19:20:23;9.85;;;1.50;;
23565;SDS011;22140;48.988;8.544;2023-07-13T19:25:25;8.77;;;1.93;;
23565;SDS011;22140;48.988;8.544;2023-07-13T19:30:27;5.82;;;1.52;;
23565;SDS011;22140;48.988;8.544;2023-07-13T19:35:29;9.45;;;1.80;;
23565;SDS011;22140;48.988;8.544;2023-07-13T19:40:33;6.90;;;1.77;;
23565;SDS011;22140;48.988;8.544;2023-07-13T19:45:34;7.28;;;1.70;;
23565;SDS011;22140;48.988;8.544;2023-07-13T19:50:36;6.05;;;1.65;;
23565;SDS011;22140;48.988;8.544;2023-07-13T19:55:38;4.77;;;1.43;;
23565;SDS011;22140;48.988;8.544;2023-07-13T20:00:39;7.27;;;1.90;;
23565;SDS011;22140;48.988;8.544;2023-07-13T20:05:41;7.25;;;1.83;;
23565;SDS011;22140;48.988;8.544;2023-07-13T20:10:47;8.98;;;2.50;;
23565;SDS011;22140;48.988;8.544;2023-07-13T20:15:50;5.73;;;1.50;;
23565;SDS011;22140;48.988;8.544;2023-07-13T20:20:51;6.68;;;1.80;;
23565;SDS011;22140;48.988;8.544;2023-07-13T20:25:53;5.70;;;1.70;;
23565;SDS011;22140;48.988;8.544;2023-07-13T20:30:55;6.07;;;1.70;;
23565;SDS011;22140;48.988;8.544;2023-07-13T20:36:00;6.05;;;1.42;;
23565;SDS011;22140;48.988;8.544;2023-07-13T20:41:02;5.43;;;1.50;;
23565;SDS011;22140;48.988;8.544;2023-07-13T20:46:04;7.23;;;1.30;;
23565;SDS011;22140;48.988;8.544;2023-07-13T20:51:14;6.60;;;1.50;;
23565;SDS011;22140;48.988;8.544;2023-07-13T20:56:17;5.18;;;1.55;;
23565;SDS011;22140;48.988;8.544;2023-07-13T21:06:27;5.50;;;1.60;;
23565;SDS011;22140;48.988;8.544;2023-07-13T21:11:30;7.80;;;1.77;;
23565;SDS011;22140;48.988;8.544;2023-07-13T21:16:31;7.22;;;1.70;;
23565;SDS011;22140;48.988;8.544;2023-07-13T21:21:33;6.10;;;1.67;;
23565;SDS011;22140;48.988;8.544;2023-07-13T21:26:34;7.32;;;1.80;;
23565;SDS011;22140;48.988;8.544;2023-07-13T21:31:35;5.35;;;1.48;;
23565;SDS011;22140;48.988;8.544;2023-07-13T21:36:37;5.37;;;1.43;;
23565;SDS011;22140;48.988;8.544;2023-07-13T21:41:38;7.27;;;1.60;;
23565;SDS011;22140;48.988;8.544;2023-07-13T21:46:40;5.95;;;1.50;;
23565;SDS011;22140;48.988;8.544;2023-07-13T21:51:41;6.60;;;1.60;;
23565;SDS011;22140;48.988;8.544;2023-07-13T21:56:43;6.40;;;1.53;;
23565;SDS011;22140;48.988;8.544;2023-07-13T22:01:44;7.22;;;1.70;;
23565;SDS011;22140;48.988;8.544;2023-07-13T22:06:46;7.40;;;1.50;;
23565;SDS011;22140;48.988;8.544;2023-07-13T22:11:47;10.03;;;1.93;;
23565;SDS011;22140;48.988;8.544;2023-07-13T22:16:49;5.15;;;1.38;;
23565;SDS011;22140;48.988;8.544;2023-07-13T22:21:50;8.00;;;1.63;;
23565;SDS011;22140;48.988;8.544;2023-07-13T22:26:52;6.17;;;1.50;;
23565;SDS011;22140;48.988;8.544;2023-07-13T22:31:53;8.23;;;2.10;;
23565;SDS011;22140;48.988;8.544;2023-07-13T22:36:54;7.05;;;1.70;;
23565;SDS011;22140;48.988;8.544;2023-07-13T22:41:56;5.78;;;2.17;;
23565;SDS011;22140;48.988;8.544;2023-07-13T22:46:57;7.00;;;1.60;;
23565;SDS011;22140;48.988;8.544;2023-07-13T22:52:00;13.65;;;2.25;;
23565;SDS011;22140;48.988;8.544;2023-07-13T22:57:02;8.25;;;1.80;;
23565;SDS011;22140;48.988;8.544;2023-07-13T23:02:04;7.10;;;1.77;;
23565;SDS011;22140;48.988;8.544;2023-07-13T23:07:05;6.43;;;1.77;;
23565;SDS011;22140;48.988;8.544;2023-07-13T23:12:07;8.57;;;1.88;;
23565;SDS011;22140;48.988;8.544;2023-07-13T23:17:10;6.50;;;1.80;;
23565;SDS011;22140;48.988;8.544;2023-07-13T23:22:17;6.60;;;1.80;;
23565;SDS011;22140;48.988;8.544;2023-07-13T23:27:21;6.00;;;1.80;;
23565;SDS011;22140;48.988;8.544;2023-07-13T23:32:23;5.45;;;1.83;;
23565;SDS011;22140;48.988;8.544;2023-07-13T23:37:24;5.97;;;1.60;;
23565;SDS011;22140;48.988;8.544;2023-07-13T23:42:28;6.75;;;1.83;;
23565;SDS011;22140;48.988;8.544;2023-07-13T23:47:30;7.35;;;1.70;;
23565;SDS011;22140;48.988;8.544;2023-07-13T23:52:31;6.90;;;1.80;;
23565;SDS011;22140;48.988;8.544;2023-07-13T23:57:32;7.55;;;2.20;;
